sensor_id;sensor_type;location;lat;lon;timestamp;pressure;altitude;pressure_sealevel;temperature;humidity
72950;BME280;64868;45.710;9.590;2023-05-03T00:02:02;99297.91;;;14.87;72.46
72950;BME280;64868;45.710;9.590;2023-05-03T00:04:32;99302.94;;;14.82;73.10
72950;BME280;64868;45.710;9.590;2023-05-03T00:07:05;99303.53;;;14.86;73.04
72950;BME280;64868;45.710;9.590;2023-05-03T00:09:38;99276.16;;;14.74;72.61
72950;BME280;64868;45.710;9.590;2023-05-03T00:12:08;99249.16;;;14.58;72.30
72950;BME280;64868;45.710;9.590;2023-05-03T00:14:40;99289.72;;;14.76;73.05
72950;BME280;64868;45.710;9.590;2023-05-03T00:17:13;99290.53;;;14.67;72.83
72950;BME280;64868;45.710;9.590;2023-05-03T00:19:46;99288.34;;;14.49;73.36
72950;BME280;64868;45.710;9.590;2023-05-03T00:22:18;99293.09;;;14.36;74.68
72950;BME280;64868;45.710;9.590;2023-05-03T00:24:51;99295.13;;;14.23;74.39
72950;BME280;64868;45.710;9.590;2023-05-03T00:27:23;99292.75;;;14.18;75.39
72950;BME280;64868;45.710;9.590;2023-05-03T00:29:56;99272.75;;;13.95;75.85
72950;BME280;64868;45.710;9.590;2023-05-03T00:32:26;99293.19;;;14.02;75.77
72950;BME280;64868;45.710;9.590;2023-05-03T00:34:57;99285.19;;;13.99;75.92
72950;BME280;64868;45.710;9.590;2023-05-03T00:37:27;99250.59;;;13.87;75.60
72950;BME280;64868;45.710;9.590;2023-05-03T00:39:59;99272.19;;;14.12;75.64
72950;BME280;64868;45.710;9.590;2023-05-03T00:42:31;99265.19;;;14.20;75.63
72950;BME280;64868;45.710;9.590;2023-05-03T00:45:02;99264.09;;;14.22;74.60
72950;BME280;64868;45.710;9.590;2023-05-03T00:47:35;99277.50;;;14.36;75.01
72950;BME280;64868;45.710;9.590;2023-05-03T00:50:10;99273.09;;;14.45;74.46
72950;BME280;64868;45.710;9.590;2023-05-03T00:52:40;99251.41;;;14.42;73.85
72950;BME280;64868;45.710;9.590;2023-05-03T00:55:13;99273.09;;;14.56;74.21
72950;BME280;64868;45.710;9.590;2023-05-03T00:57:44;99281.31;;;14.56;72.96
72950;BME280;64868;45.710;9.590;2023-05-03T01:00:17;99270.00;;;14.50;73.44
72950;BME280;64868;45.710;9.590;2023-05-03T01:02:50;99196.06;;;14.05;73.43
72950;BME280;64868;45.710;9.590;2023-05-03T01:05:23;99269.13;;;14.49;73.22
72950;BME280;64868;45.710;9.590;2023-05-03T01:08:14;99280.47;;;14.45;73.35
72950;BME280;64868;45.710;9.590;2023-05-03T01:11:04;99270.00;;;14.50;73.01
72950;BME280;64868;45.710;9.590;2023-05-03T01:13:48;99263.13;;;14.55;73.04
72950;BME280;64868;45.710;9.590;2023-05-03T01:16:40;99220.47;;;14.19;72.34
72950;BME280;64868;45.710;9.590;2023-05-03T01:19:35;99272.25;;;14.45;72.51
72950;BME280;64868;45.710;9.590;2023-05-03T01:22:36;99272.34;;;14.43;73.32
72950;BME280;64868;45.710;9.590;2023-05-03T01:25:12;99267.03;;;14.30;73.28
72950;BME280;64868;45.710;9.590;2023-05-03T01:27:45;99265.44;;;14.17;73.82
72950;BME280;64868;45.710;9.590;2023-05-03T01:30:18;99274.28;;;14.20;74.13
72950;BME280;64868;45.710;9.590;2023-05-03T01:34:04;99268.19;;;14.17;74.14
72950;BME280;64868;45.710;9.590;2023-05-03T01:36:13;99274.91;;;14.24;73.99
72950;BME280;64868;45.710;9.590;2023-05-03T01:38:43;99272.66;;;14.29;73.82
72950;BME280;64868;45.710;9.590;2023-05-03T01:41:17;99278.38;;;14.37;73.01
72950;BME280;64868;45.710;9.590;2023-05-03T01:43:50;99266.53;;;14.36;72.52
72950;BME280;64868;45.710;9.590;2023-05-03T01:46:23;99279.00;;;14.41;73.34
72950;BME280;64868;45.710;9.590;2023-05-03T01:48:56;99278.59;;;14.45;73.51
72950;BME280;64868;45.710;9.590;2023-05-03T01:51:26;99283.22;;;14.45;72.19
72950;BME280;64868;45.710;9.590;2023-05-03T01:53:58;99265.53;;;14.38;72.69
72950;BME280;64868;45.710;9.590;2023-05-03T01:56:29;99291.19;;;14.48;72.82
72950;BME280;64868;45.710;9.590;2023-05-03T01:58:59;99287.31;;;14.39;73.15
72950;BME280;64868;45.710;9.590;2023-05-03T02:01:32;99290.22;;;14.38;73.03
72950;BME280;64868;45.710;9.590;2023-05-03T02:04:04;99296.94;;;14.45;73.06
72950;BME280;64868;45.710;9.590;2023-05-03T02:06:37;99252.38;;;14.09;73.13
72950;BME280;64868;45.710;9.590;2023-05-03T02:09:07;99288.63;;;14.24;73.31
72950;BME280;64868;45.710;9.590;2023-05-03T02:11:40;99236.97;;;13.97;73.26
72950;BME280;64868;45.710;9.590;2023-05-03T02:14:12;99289.59;;;14.34;72.31
72950;BME280;64868;45.710;9.590;2023-05-03T02:16:43;99225.00;;;13.98;72.38
72950;BME280;64868;45.710;9.590;2023-05-03T02:19:15;99312.53;;;14.44;72.13
72950;BME280;64868;45.710;9.590;2023-05-03T02:21:48;99287.09;;;14.31;72.44
72950;BME280;64868;45.710;9.590;2023-05-03T02:24:18;99288.47;;;14.36;72.61
72950;BME280;64868;45.710;9.590;2023-05-03T02:26:48;99247.06;;;13.96;73.56
72950;BME280;64868;45.710;9.590;2023-05-03T02:29:19;99286.03;;;14.11;74.77
72950;BME280;64868;45.710;9.590;2023-05-03T02:31:49;99276.22;;;13.97;75.74
72950;BME280;64868;45.710;9.590;2023-05-03T02:34:20;99262.94;;;13.70;77.24
72950;BME280;64868;45.710;9.590;2023-05-03T02:36:52;99289.31;;;13.71;78.29
72950;BME280;64868;45.710;9.590;2023-05-03T02:39:25;99263.69;;;13.50;78.01
72950;BME280;64868;45.710;9.590;2023-05-03T02:41:52;99232.41;;;13.19;78.93
72950;BME280;64868;45.710;9.590;2023-05-03T02:44:22;99269.78;;;13.42;79.43
72950;BME280;64868;45.710;9.590;2023-05-03T02:46:52;99255.22;;;13.30;79.23
72950;BME280;64868;45.710;9.590;2023-05-03T02:49:25;99291.31;;;13.47;79.51
72950;BME280;64868;45.710;9.590;2023-05-03T02:51:55;99256.34;;;13.28;78.63
72950;BME280;64868;45.710;9.590;2023-05-03T02:54:26;99282.97;;;13.37;78.88
72950;BME280;64868;45.710;9.590;2023-05-03T02:56:56;99290.63;;;13.21;80.49
72950;BME280;64868;45.710;9.590;2023-05-03T02:59:29;99221.88;;;12.79;80.77
72950;BME280;64868;45.710;9.590;2023-05-03T03:02:01;99233.00;;;12.88;79.73
72950;BME280;64868;45.710;9.590;2023-05-03T03:04:29;99214.88;;;12.63;80.37
72950;BME280;64868;45.710;9.590;2023-05-03T03:06:59;99289.88;;;13.07;79.51
72950;BME280;64868;45.710;9.590;2023-05-03T03:09:30;99250.25;;;12.78;80.55
72950;BME280;64868;45.710;9.590;2023-05-03T03:12:02;99247.97;;;12.72;80.16
72950;BME280;64868;45.710;9.590;2023-05-03T03:14:32;99284.22;;;12.86;80.10
72950;BME280;64868;45.710;9.590;2023-05-03T03:17:08;99271.88;;;12.70;80.28
72950;BME280;64868;45.710;9.590;2023-05-03T03:19:41;99280.59;;;12.75;80.30
72950;BME280;64868;45.710;9.590;2023-05-03T03:22:08;99258.03;;;12.60;80.04
72950;BME280;64868;45.710;9.590;2023-05-03T03:24:41;99244.91;;;12.41;80.47
72950;BME280;64868;45.710;9.590;2023-05-03T03:27:13;99233.31;;;12.37;80.44
72950;BME280;64868;45.710;9.590;2023-05-03T03:29:41;99270.06;;;12.57;81.14
72950;BME280;64868;45.710;9.590;2023-05-03T03:32:14;99279.94;;;12.71;79.77
72950;BME280;64868;45.710;9.590;2023-05-03T03:34:44;99277.72;;;12.76;78.96
72950;BME280;64868;45.710;9.590;2023-05-03T03:37:11;99268.53;;;12.77;78.09
72950;BME280;64868;45.710;9.590;2023-05-03T03:39:44;99301.78;;;12.95;77.91
72950;BME280;64868;45.710;9.590;2023-05-03T03:42:16;99281.97;;;12.91;78.68
72950;BME280;64868;45.710;9.590;2023-05-03T03:44:47;99301.28;;;12.90;79.22
72950;BME280;64868;45.710;9.590;2023-05-03T03:47:14;99260.28;;;12.66;76.96
72950;BME280;64868;45.710;9.590;2023-05-03T03:49:47;99301.09;;;12.80;77.10
72950;BME280;64868;45.710;9.590;2023-05-03T03:52:17;99306.44;;;12.71;78.44
72950;BME280;64868;45.710;9.590;2023-05-03T03:54:50;99295.91;;;12.53;78.62
72950;BME280;64868;45.710;9.590;2023-05-03T03:57:22;99313.31;;;12.52;78.95
72950;BME280;64868;45.710;9.590;2023-05-03T03:59:54;99309.56;;;12.53;77.35
72950;BME280;64868;45.710;9.590;2023-05-03T04:02:24;99308.78;;;12.40;79.80
72950;BME280;64868;45.710;9.590;2023-05-03T04:04:55;99320.38;;;12.44;78.66
72950;BME280;64868;45.710;9.590;2023-05-03T04:07:27;99323.78;;;12.34;79.03
72950;BME280;64868;45.710;9.590;2023-05-03T04:09:58;99314.88;;;12.20;80.32
72950;BME280;64868;45.710;9.590;2023-05-03T04:12:28;99314.53;;;12.24;80.13
72950;BME280;64868;45.710;9.590;2023-05-03T04:15:00;99328.09;;;12.26;80.47
72950;BME280;64868;45.710;9.590;2023-05-03T04:17:30;99332.91;;;12.22;80.64
72950;BME280;64868;45.710;9.590;2023-05-03T04:20:03;99322.84;;;12.23;79.40
72950;BME280;64868;45.710;9.590;2023-05-03T04:22:36;99321.09;;;12.22;79.01
72950;BME280;64868;45.710;9.590;2023-05-03T04:25:08;99295.91;;;12.05;78.68
72950;BME280;64868;45.710;9.590;2023-05-03T04:27:38;99329.25;;;12.34;78.36
72950;BME280;64868;45.710;9.590;2023-05-03T04:30:10;99335.34;;;12.38;79.11
72950;BME280;64868;45.710;9.590;2023-05-03T04:32:43;99338.06;;;12.51;77.84
72950;BME280;64868;45.710;9.590;2023-05-03T04:35:13;99320.38;;;12.44;77.88
72950;BME280;64868;45.710;9.590;2023-05-03T04:37:43;99341.72;;;12.62;78.67
72950;BME280;64868;45.710;9.590;2023-05-03T04:40:13;99336.00;;;12.65;77.65
72950;BME280;64868;45.710;9.590;2023-05-03T04:42:46;99338.41;;;12.70;76.99
72950;BME280;64868;45.710;9.590;2023-05-03T04:45:18;99341.00;;;12.96;76.02
72950;BME280;64868;45.710;9.590;2023-05-03T04:47:51;99342.13;;;13.04;75.52
72950;BME280;64868;45.710;9.590;2023-05-03T04:50:18;99334.91;;;13.03;76.04
72950;BME280;64868;45.710;9.590;2023-05-03T04:52:48;99353.66;;;13.32;75.28
72950;BME280;64868;45.710;9.590;2023-05-03T04:55:19;99334.25;;;13.35;74.18
72950;BME280;64868;45.710;9.590;2023-05-03T04:57:49;99360.94;;;13.67;72.42
72950;BME280;64868;45.710;9.590;2023-05-03T05:00:20;99357.59;;;13.74;72.36
72950;BME280;64868;45.710;9.590;2023-05-03T05:02:52;99345.13;;;13.93;71.09
72950;BME280;64868;45.710;9.590;2023-05-03T05:05:25;99351.59;;;14.14;70.58
72950;BME280;64868;45.710;9.590;2023-05-03T05:07:55;99366.66;;;14.31;69.83
72950;BME280;64868;45.710;9.590;2023-05-03T05:10:28;99278.84;;;13.99;68.75
72950;BME280;64868;45.710;9.590;2023-05-03T05:12:58;99344.53;;;14.66;68.04
72950;BME280;64868;45.710;9.590;2023-05-03T05:15:28;99370.31;;;15.07;67.18
72950;BME280;64868;45.710;9.590;2023-05-03T05:18:01;99377.22;;;15.01;67.66
72950;BME280;64868;45.710;9.590;2023-05-03T05:20:33;99373.97;;;14.96;67.13
72950;BME280;64868;45.710;9.590;2023-05-03T05:23:04;99379.34;;;15.19;66.09
72950;BME280;64868;45.710;9.590;2023-05-03T05:25:36;99354.66;;;15.19;64.89
72950;BME280;64868;45.710;9.590;2023-05-03T05:28:10;99373.09;;;15.28;64.23
72950;BME280;64868;45.710;9.590;2023-05-03T05:30:40;99371.34;;;15.27;64.63
72950;BME280;64868;45.710;9.590;2023-05-03T05:33:13;99356.16;;;15.23;64.12
72950;BME280;64868;45.710;9.590;2023-05-03T05:35:46;99368.66;;;15.37;63.93
72950;BME280;64868;45.710;9.590;2023-05-03T05:38:18;99370.63;;;15.46;63.08
72950;BME280;64868;45.710;9.590;2023-05-03T05:40:49;99383.28;;;15.58;62.85
72950;BME280;64868;45.710;9.590;2023-05-03T05:43:19;99384.66;;;15.52;62.98
72950;BME280;64868;45.710;9.590;2023-05-03T05:45:49;99340.84;;;15.30;62.72
72950;BME280;64868;45.710;9.590;2023-05-03T05:48:19;99389.28;;;15.52;62.10
72950;BME280;64868;45.710;9.590;2023-05-03T05:50:49;99370.13;;;15.62;61.79
72950;BME280;64868;45.710;9.590;2023-05-03T05:53:22;99387.03;;;15.78;60.32
72950;BME280;64868;45.710;9.590;2023-05-03T05:55:54;99373.88;;;15.61;60.74
72950;BME280;64868;45.710;9.590;2023-05-03T05:58:22;99377.13;;;15.66;60.50
72950;BME280;64868;45.710;9.590;2023-05-03T06:00:58;99365.31;;;15.75;60.17
72950;BME280;64868;45.710;9.590;2023-05-03T06:03:28;99371.31;;;15.90;59.53
72950;BME280;64868;45.710;9.590;2023-05-03T06:05:58;99394.59;;;16.16;59.01
72950;BME280;64868;45.710;9.590;2023-05-03T06:08:31;99356.53;;;16.12;58.60
72950;BME280;64868;45.710;9.590;2023-05-03T06:11:01;99390.94;;;16.37;57.15
72950;BME280;64868;45.710;9.590;2023-05-03T06:13:34;99353.03;;;18.68;52.03
72950;BME280;64868;45.710;9.590;2023-05-03T06:16:07;99386.41;;;25.79;35.64
72950;BME280;64868;45.710;9.590;2023-05-03T06:18:37;99398.53;;;29.11;27.57
72950;BME280;64868;45.710;9.590;2023-05-03T06:21:05;99412.88;;;30.54;25.64
72950;BME280;64868;45.710;9.590;2023-05-03T06:23:35;99414.22;;;30.70;25.35
72950;BME280;64868;45.710;9.590;2023-05-03T06:26:08;99407.50;;;30.71;24.95
72950;BME280;64868;45.710;9.590;2023-05-03T06:28:41;99409.22;;;31.45;24.10
72950;BME280;64868;45.710;9.590;2023-05-03T06:31:11;99403.84;;;32.39;22.52
72950;BME280;64868;45.710;9.590;2023-05-03T06:33:44;99421.56;;;32.93;21.76
72950;BME280;64868;45.710;9.590;2023-05-03T06:36:16;99416.53;;;33.76;21.01
72950;BME280;64868;45.710;9.590;2023-05-03T06:38:49;99419.72;;;34.59;19.67
72950;BME280;64868;45.710;9.590;2023-05-03T06:41:21;99427.72;;;35.23;19.10
72950;BME280;64868;45.710;9.590;2023-05-03T06:43:51;99424.31;;;33.69;20.54
72950;BME280;64868;45.710;9.590;2023-05-03T06:46:22;99425.63;;;33.26;21.07
72950;BME280;64868;45.710;9.590;2023-05-03T06:48:54;99415.16;;;34.58;19.40
72950;BME280;64868;45.710;9.590;2023-05-03T06:51:27;99429.22;;;35.30;18.45
72950;BME280;64868;45.710;9.590;2023-05-03T06:53:59;99421.38;;;34.94;18.91
72950;BME280;64868;45.710;9.590;2023-05-03T06:56:35;99411.84;;;35.22;18.41
72950;BME280;64868;45.710;9.590;2023-05-03T06:59:07;99411.69;;;35.12;18.44
72950;BME280;64868;45.710;9.590;2023-05-03T07:01:40;99436.47;;;35.87;17.95
72950;BME280;64868;45.710;9.590;2023-05-03T07:04:12;99414.72;;;36.25;17.42
72950;BME280;64868;45.710;9.590;2023-05-03T07:06:45;99397.50;;;35.77;17.79
72950;BME280;64868;45.710;9.590;2023-05-03T07:09:15;99420.69;;;36.28;17.49
72950;BME280;64868;45.710;9.590;2023-05-03T07:11:48;99428.00;;;36.89;17.31
72950;BME280;64868;45.710;9.590;2023-05-03T07:14:20;99437.09;;;37.38;16.77
72950;BME280;64868;45.710;9.590;2023-05-03T07:16:48;99431.34;;;37.18;16.80
72950;BME280;64868;45.710;9.590;2023-05-03T07:19:21;99435.41;;;38.41;15.51
72950;BME280;64868;45.710;9.590;2023-05-03T07:21:51;99428.47;;;39.88;14.94
72950;BME280;64868;45.710;9.590;2023-05-03T07:24:21;99418.47;;;39.31;15.00
72950;BME280;64868;45.710;9.590;2023-05-03T07:26:53;99416.47;;;39.32;14.95
72950;BME280;64868;45.710;9.590;2023-05-03T07:29:24;99433.31;;;39.33;15.11
72950;BME280;64868;45.710;9.590;2023-05-03T07:31:56;99430.72;;;41.04;13.78
72950;BME280;64868;45.710;9.590;2023-05-03T07:34:29;99437.53;;;42.18;12.67
72950;BME280;64868;45.710;9.590;2023-05-03T07:37:02;99444.94;;;42.19;12.73
72950;BME280;64868;45.710;9.590;2023-05-03T07:39:29;99422.69;;;41.30;13.14
72950;BME280;64868;45.710;9.590;2023-05-03T07:42:02;99422.38;;;42.50;12.33
72950;BME280;64868;45.710;9.590;2023-05-03T07:44:32;99444.44;;;42.36;12.64
72950;BME280;64868;45.710;9.590;2023-05-03T07:47:02;99419.16;;;39.73;14.74
72950;BME280;64868;45.710;9.590;2023-05-03T07:49:32;99418.72;;;39.40;15.40
72950;BME280;64868;45.710;9.590;2023-05-03T07:52:05;99421.16;;;40.56;14.21
72950;BME280;64868;45.710;9.590;2023-05-03T07:54:35;99419.69;;;41.17;13.90
72950;BME280;64868;45.710;9.590;2023-05-03T07:57:05;99428.66;;;41.34;13.66
72950;BME280;64868;45.710;9.590;2023-05-03T07:59:35;99424.13;;;41.04;13.88
72950;BME280;64868;45.710;9.590;2023-05-03T08:02:08;99437.06;;;41.92;13.16
72950;BME280;64868;45.710;9.590;2023-05-03T08:04:40;99403.03;;;39.92;14.32
72950;BME280;64868;45.710;9.590;2023-05-03T08:07:13;99426.41;;;43.42;12.45
72950;BME280;64868;45.710;9.590;2023-05-03T08:09:43;99411.22;;;42.68;12.64
72950;BME280;64868;45.710;9.590;2023-05-03T08:12:16;99423.66;;;42.44;12.97
72950;BME280;64868;45.710;9.590;2023-05-03T08:14:48;99418.19;;;39.33;15.01
72950;BME280;64868;45.710;9.590;2023-05-03T08:17:21;99414.88;;;41.36;14.20
72950;BME280;64868;45.710;9.590;2023-05-03T08:19:56;99422.44;;;42.97;13.24
72950;BME280;64868;45.710;9.590;2023-05-03T08:22:26;99440.72;;;44.11;11.85
72950;BME280;64868;45.710;9.590;2023-05-03T08:24:57;99428.75;;;43.68;12.00
72950;BME280;64868;45.710;9.590;2023-05-03T08:27:27;99435.03;;;43.56;11.91
72950;BME280;64868;45.710;9.590;2023-05-03T08:29:58;99434.31;;;42.90;12.29
72950;BME280;64868;45.710;9.590;2023-05-03T08:32:30;99444.59;;;43.24;11.74
72950;BME280;64868;45.710;9.590;2023-05-03T08:35:03;99417.41;;;31.95;22.90
72950;BME280;64868;45.710;9.590;2023-05-03T08:37:37;99426.56;;;38.12;16.08
72950;BME280;64868;45.710;9.590;2023-05-03T08:40:11;99440.97;;;39.43;14.44
72950;BME280;64868;45.710;9.590;2023-05-03T08:42:46;99411.31;;;35.47;18.08
72950;BME280;64868;45.710;9.590;2023-05-03T08:45:18;99410.78;;;27.78;28.02
72950;BME280;64868;45.710;9.590;2023-05-03T08:47:54;99391.63;;;24.43;34.69
72950;BME280;64868;45.710;9.590;2023-05-03T08:50:25;99378.91;;;23.27;36.92
72950;BME280;64868;45.710;9.590;2023-05-03T08:52:56;99385.47;;;23.35;37.58
72950;BME280;64868;45.710;9.590;2023-05-03T08:55:28;99386.94;;;23.91;36.96
72950;BME280;64868;45.710;9.590;2023-05-03T08:58:01;99399.09;;;24.28;36.45
72950;BME280;64868;45.710;9.590;2023-05-03T09:00:30;99389.31;;;24.32;36.78
72950;BME280;64868;45.710;9.590;2023-05-03T09:03:03;99390.34;;;23.78;37.26
72950;BME280;64868;45.710;9.590;2023-05-03T09:05:35;99406.97;;;24.10;36.39
72950;BME280;64868;45.710;9.590;2023-05-03T09:08:10;99407.69;;;24.86;35.90
72950;BME280;64868;45.710;9.590;2023-05-03T09:10:46;99399.72;;;24.68;34.09
72950;BME280;64868;45.710;9.590;2023-05-03T09:13:14;99390.00;;;24.49;33.67
72950;BME280;64868;45.710;9.590;2023-05-03T09:15:54;99410.28;;;24.58;33.88
72950;BME280;64868;45.710;9.590;2023-05-03T09:18:26;99394.81;;;24.40;34.01
72950;BME280;64868;45.710;9.590;2023-05-03T09:20:59;99395.56;;;24.64;33.81
72950;BME280;64868;45.710;9.590;2023-05-03T09:23:30;99404.38;;;24.38;34.82
72950;BME280;64868;45.710;9.590;2023-05-03T09:26:02;99380.78;;;23.35;36.14
72950;BME280;64868;45.710;9.590;2023-05-03T09:28:41;99403.28;;;22.94;37.21
72950;BME280;64868;45.710;9.590;2023-05-03T09:31:17;99382.13;;;23.39;37.50
72950;BME280;64868;45.710;9.590;2023-05-03T09:33:49;99390.44;;;23.70;36.07
72950;BME280;64868;45.710;9.590;2023-05-03T09:36:22;99399.91;;;23.38;36.15
72950;BME280;64868;45.710;9.590;2023-05-03T09:38:53;99394.81;;;23.42;37.14
72950;BME280;64868;45.710;9.590;2023-05-03T09:41:30;99391.00;;;24.03;35.60
72950;BME280;64868;45.710;9.590;2023-05-03T09:44:00;99393.66;;;24.64;34.20
72950;BME280;64868;45.710;9.590;2023-05-03T09:46:33;99393.06;;;24.39;33.70
72950;BME280;64868;45.710;9.590;2023-05-03T09:49:06;99377.03;;;22.97;35.78
72950;BME280;64868;45.710;9.590;2023-05-03T09:51:36;99384.38;;;22.81;36.77
72950;BME280;64868;45.710;9.590;2023-05-03T09:54:07;99387.63;;;23.47;34.99
72950;BME280;64868;45.710;9.590;2023-05-03T09:56:41;99374.25;;;23.89;35.46
72950;BME280;64868;45.710;9.590;2023-05-03T09:59:11;99373.16;;;23.52;36.22
72950;BME280;64868;45.710;9.590;2023-05-03T10:01:44;99373.41;;;22.96;36.66
72950;BME280;64868;45.710;9.590;2023-05-03T10:04:16;99365.00;;;22.26;38.52
72950;BME280;64868;45.710;9.590;2023-05-03T10:06:50;99356.81;;;22.32;37.60
72950;BME280;64868;45.710;9.590;2023-05-03T10:09:32;99364.09;;;22.33;38.58
72950;BME280;64868;45.710;9.590;2023-05-03T10:12:06;99373.22;;;23.21;36.09
72950;BME280;64868;45.710;9.590;2023-05-03T10:14:36;99356.19;;;23.85;34.61
72950;BME280;64868;45.710;9.590;2023-05-03T10:17:21;99373.38;;;24.41;34.13
72950;BME280;64868;45.710;9.590;2023-05-03T10:23:11;99364.44;;;23.55;35.77
72950;BME280;64868;45.710;9.590;2023-05-03T10:28:43;99351.94;;;23.05;36.66
72950;BME280;64868;45.710;9.590;2023-05-03T10:31:44;99355.47;;;23.45;35.72
72950;BME280;64868;45.710;9.590;2023-05-03T10:34:26;99344.66;;;23.73;34.86
72950;BME280;64868;45.710;9.590;2023-05-03T10:37:02;99367.19;;;25.26;32.70
72950;BME280;64868;45.710;9.590;2023-05-03T10:39:39;99356.53;;;25.00;32.73
72950;BME280;64868;45.710;9.590;2023-05-03T10:42:13;99349.25;;;24.63;32.95
72950;BME280;64868;45.710;9.590;2023-05-03T10:44:54;99347.63;;;24.39;34.51
72950;BME280;64868;45.710;9.590;2023-05-03T10:47:27;99327.22;;;24.23;34.69
72950;BME280;64868;45.710;9.590;2023-05-03T10:52:49;99333.59;;;23.42;34.93
72950;BME280;64868;45.710;9.590;2023-05-03T10:55:20;99338.78;;;22.91;35.98
72950;BME280;64868;45.710;9.590;2023-05-03T10:57:55;99332.44;;;22.51;36.53
72950;BME280;64868;45.710;9.590;2023-05-03T11:00:36;99338.50;;;21.74;38.43
72950;BME280;64868;45.710;9.590;2023-05-03T11:05:52;99339.34;;;22.86;36.00
72950;BME280;64868;45.710;9.590;2023-05-03T11:08:23;99337.59;;;24.30;34.16
72950;BME280;64868;45.710;9.590;2023-05-03T11:11:02;99334.47;;;24.84;33.16
72950;BME280;64868;45.710;9.590;2023-05-03T11:13:36;99321.63;;;24.68;34.68
72950;BME280;64868;45.710;9.590;2023-05-03T11:16:08;99327.97;;;24.62;31.98
72950;BME280;64868;45.710;9.590;2023-05-03T11:18:41;99326.97;;;26.19;29.38
72950;BME280;64868;45.710;9.590;2023-05-03T11:21:13;99337.41;;;26.74;29.21
72950;BME280;64868;45.710;9.590;2023-05-03T11:23:45;99331.81;;;26.39;28.97
72950;BME280;64868;45.710;9.590;2023-05-03T11:26:15;99336.97;;;26.35;30.01
72950;BME280;64868;45.710;9.590;2023-05-03T11:28:47;99331.75;;;25.27;31.07
72950;BME280;64868;45.710;9.590;2023-05-03T11:31:22;99334.59;;;24.01;32.61
72950;BME280;64868;45.710;9.590;2023-05-03T11:33:52;99310.97;;;24.27;33.25
72950;BME280;64868;45.710;9.590;2023-05-03T11:36:22;99315.91;;;24.40;33.46
72950;BME280;64868;45.710;9.590;2023-05-03T11:38:55;99311.91;;;23.90;34.56
72950;BME280;64868;45.710;9.590;2023-05-03T11:41:27;99328.16;;;24.01;34.70
72950;BME280;64868;45.710;9.590;2023-05-03T11:43:57;99328.84;;;23.04;35.93
72950;BME280;64868;45.710;9.590;2023-05-03T11:46:29;99317.50;;;24.19;33.83
72950;BME280;64868;45.710;9.590;2023-05-03T11:49:04;99319.28;;;25.08;32.68
72950;BME280;64868;45.710;9.590;2023-05-03T11:51:37;99303.50;;;24.42;33.37
72950;BME280;64868;45.710;9.590;2023-05-03T11:54:10;99281.03;;;24.44;33.51
72950;BME280;64868;45.710;9.590;2023-05-03T11:56:47;99292.34;;;23.98;34.17
72950;BME280;64868;45.710;9.590;2023-05-03T11:59:15;99334.19;;;23.90;34.28
72950;BME280;64868;45.710;9.590;2023-05-03T12:01:47;99324.66;;;24.51;33.89
72950;BME280;64868;45.710;9.590;2023-05-03T12:04:20;99306.50;;;24.77;33.63
72950;BME280;64868;45.710;9.590;2023-05-03T12:06:50;99317.81;;;24.10;34.29
72950;BME280;64868;45.710;9.590;2023-05-03T12:09:23;99318.75;;;23.87;34.45
72950;BME280;64868;45.710;9.590;2023-05-03T12:11:54;99311.84;;;24.13;34.16
72950;BME280;64868;45.710;9.590;2023-05-03T12:14:26;99301.97;;;23.58;34.76
72950;BME280;64868;45.710;9.590;2023-05-03T12:16:59;99298.09;;;23.44;34.75
72950;BME280;64868;45.710;9.590;2023-05-03T12:19:32;99308.56;;;23.19;34.99
72950;BME280;64868;45.710;9.590;2023-05-03T12:22:03;99303.88;;;23.57;33.57
72950;BME280;64868;45.710;9.590;2023-05-03T12:24:35;99285.22;;;23.81;33.92
72950;BME280;64868;45.710;9.590;2023-05-03T12:27:05;99306.84;;;24.89;32.56
72950;BME280;64868;45.710;9.590;2023-05-03T12:29:35;99313.31;;;24.89;32.85
72950;BME280;64868;45.710;9.590;2023-05-03T12:32:05;99305.69;;;24.47;33.51
72950;BME280;64868;45.710;9.590;2023-05-03T12:34:38;99308.88;;;23.99;33.96
72950;BME280;64868;45.710;9.590;2023-05-03T12:37:11;99295.16;;;23.60;34.57
72950;BME280;64868;45.710;9.590;2023-05-03T12:39:39;99295.41;;;25.41;32.77
72950;BME280;64868;45.710;9.590;2023-05-03T12:42:11;99310.63;;;26.51;30.74
72950;BME280;64868;45.710;9.590;2023-05-03T12:44:41;99298.91;;;26.00;30.15
72950;BME280;64868;45.710;9.590;2023-05-03T12:47:13;99296.28;;;25.70;30.88
72950;BME280;64868;45.710;9.590;2023-05-03T12:49:41;99265.81;;;25.47;30.57
72950;BME280;64868;45.710;9.590;2023-05-03T12:52:08;99306.16;;;25.02;31.51
72950;BME280;64868;45.710;9.590;2023-05-03T12:54:36;99298.59;;;24.81;32.72
72950;BME280;64868;45.710;9.590;2023-05-03T12:57:06;99289.31;;;25.31;32.21
72950;BME280;64868;45.710;9.590;2023-05-03T12:59:38;99271.00;;;26.06;30.24
72950;BME280;64868;45.710;9.590;2023-05-03T13:02:06;99284.91;;;25.43;30.93
72950;BME280;64868;45.710;9.590;2023-05-03T13:04:39;99264.66;;;24.56;32.55
72950;BME280;64868;45.710;9.590;2023-05-03T13:07:12;99302.72;;;24.04;34.32
72950;BME280;64868;45.710;9.590;2023-05-03T13:09:42;99292.53;;;23.96;34.40
72950;BME280;64868;45.710;9.590;2023-05-03T13:12:14;99286.28;;;23.79;34.18
72950;BME280;64868;45.710;9.590;2023-05-03T13:14:44;99282.72;;;23.86;33.81
72950;BME280;64868;45.710;9.590;2023-05-03T13:17:15;99284.56;;;23.18;35.57
72950;BME280;64868;45.710;9.590;2023-05-03T13:19:49;99289.41;;;23.01;35.26
72950;BME280;64868;45.710;9.590;2023-05-03T13:22:23;99253.44;;;23.75;34.22
72950;BME280;64868;45.710;9.590;2023-05-03T13:24:53;99276.69;;;24.12;33.25
72950;BME280;64868;45.710;9.590;2023-05-03T13:27:26;99293.50;;;23.89;34.13
72950;BME280;64868;45.710;9.590;2023-05-03T13:29:54;99257.94;;;23.23;35.50
72950;BME280;64868;45.710;9.590;2023-05-03T13:32:21;99288.69;;;23.83;35.27
72950;BME280;64868;45.710;9.590;2023-05-03T13:34:51;99273.28;;;23.19;35.66
72950;BME280;64868;45.710;9.590;2023-05-03T13:37:24;99263.75;;;23.51;34.94
72950;BME280;64868;45.710;9.590;2023-05-03T13:39:57;99275.13;;;24.24;33.21